Time;durP1;ratioP1;P1;durP2;ratioP2;P2;SDS_P1;SDS_P2;PMS_P1;PMS_P2;Temp;Humidity;BMP_temperature;BMP_pressure;BME280_temperature;BME280_humidity;BME280_pressure;Samples;Min_cycle;Max_cycle;Signal;HPM_P1;HPM_P2
2022/02/23 00:01:26;;;;;;;8.82;6.75;;;;;;;4.55;74.01;93242.00;5047418;28;20061;-41
2022/02/23 00:03:52;;;;;;;10.93;9.07;;;;;;;4.48;74.86;93235.13;5047370;28;20053;-41
2022/02/23 00:06:19;;;;;;;8.02;6.63;;;;;;;4.55;73.92;93240.00;5047601;28;20017;-41
2022/02/23 00:08:45;;;;;;;10.63;8.10;;;;;;;4.63;74.30;93235.44;5047138;28;20529;-40
2022/02/23 00:11:11;;;;;;;9.63;7.72;;;;;;;4.49;73.99;93233.88;5046703;28;20429;-40
2022/02/23 00:13:38;;;;;;;8.38;6.80;;;;;;;4.61;73.25;93235.22;5047241;28;20029;-41
2022/02/23 00:16:04;;;;;;;10.15;7.47;;;;;;;4.59;74.34;93237.72;5047235;28;20147;-40
2022/02/23 00:18:29;;;;;;;9.23;7.28;;;;;;;4.59;73.69;93239.75;5047436;28;20048;-41
2022/02/23 00:20:55;;;;;;;8.27;7.03;;;;;;;4.59;74.25;93248.66;5047426;28;20120;-41
2022/02/23 00:23:20;;;;;;;10.23;7.70;;;;;;;4.63;74.07;93243.63;5047391;28;20085;-41
2022/02/23 00:25:46;;;;;;;6.45;5.68;;;;;;;4.62;73.52;93241.44;5047110;28;20501;-40
2022/02/23 00:28:11;;;;;;;10.63;6.57;;;;;;;4.59;73.91;93243.19;5046957;28;20096;-41
2022/02/23 00:30:37;;;;;;;7.95;5.95;;;;;;;4.65;73.14;93242.41;5047040;28;20383;-41
2022/02/23 00:33:02;;;;;;;9.30;7.25;;;;;;;4.66;73.58;93246.63;5047216;28;20069;-41
2022/02/23 00:35:28;;;;;;;8.77;6.88;;;;;;;4.56;73.85;93246.97;5047017;28;20021;-41
2022/02/23 00:37:53;;;;;;;8.93;7.47;;;;;;;4.59;73.25;93253.41;5046816;28;20032;-40
2022/02/23 00:40:19;;;;;;;8.82;6.38;;;;;;;4.55;73.51;93256.41;5046896;27;20024;-41
2022/02/23 00:42:44;;;;;;;9.32;6.97;;;;;;;4.58;73.21;93251.91;5047120;28;20021;-39
2022/02/23 00:45:10;;;;;;;7.60;6.57;;;;;;;4.60;72.99;93250.16;5047094;28;20554;-40
2022/02/23 00:47:36;;;;;;;10.48;8.13;;;;;;;4.71;72.79;93246.53;5046787;28;20472;-40
2022/02/23 00:50:03;;;;;;;8.85;6.32;;;;;;;4.61;72.57;93248.16;5046989;28;20056;-41
2022/02/23 00:52:28;;;;;;;8.38;6.03;;;;;;;4.56;73.16;93246.22;5048474;28;20082;-41
2022/02/23 00:54:53;;;;;;;6.55;5.90;;;;;;;4.56;72.84;93243.50;5050517;28;20542;-40
2022/02/23 00:57:19;;;;;;;7.93;5.53;;;;;;;4.48;73.64;93243.31;5050512;28;20508;-40
2022/02/23 00:59:45;;;;;;;9.15;5.65;;;;;;;4.57;73.39;93247.69;5050162;28;20025;-40
2022/02/23 01:02:11;;;;;;;7.55;5.93;;;;;;;4.57;73.06;93244.97;5050393;28;20021;-41
2022/02/23 01:04:36;;;;;;;7.38;5.72;;;;;;;4.56;73.25;93244.25;5050417;28;20017;-41
2022/02/23 01:07:03;;;;;;;6.97;5.40;;;;;;;4.50;73.48;93249.00;5050210;28;20048;-41
2022/02/23 01:09:28;;;;;;;8.23;5.75;;;;;;;4.61;72.50;93250.91;5050364;28;20064;-41
2022/02/23 01:11:54;;;;;;;8.40;6.15;;;;;;;4.63;73.03;93247.66;5049868;28;20056;-42
2022/02/23 01:14:19;;;;;;;12.57;7.20;;;;;;;4.51;73.12;93236.09;5049908;28;20077;-41
2022/02/23 01:16:45;;;;;;;43.60;19.67;;;;;;;4.53;73.30;93245.25;5049898;28;20021;-41
2022/02/23 01:19:10;;;;;;;21.60;12.30;;;;;;;4.52;73.71;93243.78;5050233;28;20021;-41
2022/02/23 01:21:36;;;;;;;7.78;6.43;;;;;;;4.47;73.17;93239.13;5050002;28;20413;-41
2022/02/23 01:24:01;;;;;;;10.63;6.53;;;;;;;4.36;73.88;93235.75;5050006;28;20413;-41
2022/02/23 01:26:27;;;;;;;8.05;5.90;;;;;;;4.31;74.64;93237.31;5049482;28;20045;-41
2022/02/23 01:28:52;;;;;;;9.43;6.10;;;;;;;4.17;74.04;93210.38;5050003;28;20060;-40
2022/02/23 01:31:18;;;;;;;11.70;7.20;;;;;;;4.38;73.97;93234.00;5050018;28;20100;-41
2022/02/23 01:33:43;;;;;;;6.45;5.05;;;;;;;4.36;74.64;93241.97;5049899;28;20033;-42
2022/02/23 01:36:09;;;;;;;9.98;5.90;;;;;;;4.45;73.66;93238.91;5049958;28;20021;-42
2022/02/23 01:38:34;;;;;;;8.60;6.47;;;;;;;4.38;73.40;93236.72;5049511;28;20028;-42
2022/02/23 01:41:01;;;;;;;9.60;6.00;;;;;;;4.38;73.23;93234.00;5049508;27;20096;-42
2022/02/23 01:43:27;;;;;;;9.07;6.95;;;;;;;4.31;74.17;93240.03;5048728;28;20031;-42
2022/02/23 01:45:53;;;;;;;9.80;6.82;;;;;;;4.14;74.11;93236.75;5049151;28;20391;-42
2022/02/23 01:48:18;;;;;;;9.52;6.53;;;;;;;4.33;73.29;93245.00;5049736;28;20084;-41
2022/02/23 01:50:44;;;;;;;9.02;6.00;;;;;;;4.38;72.58;93242.19;5049335;28;20036;-42
2022/02/23 01:53:10;;;;;;;14.60;10.27;;;;;;;4.14;73.00;93239.47;5049644;28;20033;-42
2022/02/23 01:55:38;;;;;;;9.40;6.20;;;;;;;4.28;72.68;93246.53;5049330;28;20407;-42
2022/02/23 01:58:04;;;;;;;6.95;6.03;;;;;;;4.11;72.87;93239.75;5049562;28;20025;-42
2022/02/23 02:00:29;;;;;;;7.68;6.03;;;;;;;4.01;73.60;93249.53;5048386;28;20048;-42
2022/02/23 02:02:55;;;;;;;7.53;5.50;;;;;;;3.93;74.26;93254.81;5049364;28;20447;-42
2022/02/23 02:05:20;;;;;;;6.72;5.43;;;;;;;3.91;73.55;93248.38;5049180;28;20483;-42
2022/02/23 02:07:46;;;;;;;6.85;5.55;;;;;;;4.13;74.20;93240.75;5049303;28;20028;-42
2022/02/23 02:10:12;;;;;;;21.23;11.25;;;;;;;4.21;73.63;93247.09;5049353;28;20494;-41
2022/02/23 02:12:37;;;;;;;17.38;11.23;;;;;;;4.19;75.00;93246.88;5049423;28;20024;-41
2022/02/23 02:15:04;;;;;;;11.35;7.85;;;;;;;4.16;73.62;93241.72;5048864;28;20492;-42
2022/02/23 02:17:30;;;;;;;10.85;7.80;;;;;;;3.96;74.13;93233.94;5049189;28;20018;-42
2022/02/23 02:19:55;;;;;;;10.27;7.28;;;;;;;3.93;73.68;93254.06;5049231;28;20453;-42
2022/02/23 02:22:21;;;;;;;28.98;18.20;;;;;;;4.01;74.22;93261.19;5049015;28;20021;-42
2022/02/23 02:24:47;;;;;;;17.15;10.18;;;;;;;4.18;73.86;93256.31;5048931;28;20068;-42
2022/02/23 02:27:14;;;;;;;8.05;6.45;;;;;;;4.24;72.65;93256.28;5048701;28;20053;-42
2022/02/23 02:29:40;;;;;;;9.95;6.82;;;;;;;4.19;73.03;93262.53;5049154;28;20014;-41
2022/02/23 02:32:07;;;;;;;10.65;7.32;;;;;;;4.21;73.63;93262.75;5049080;28;20049;-42
2022/02/23 02:34:32;;;;;;;9.73;6.88;;;;;;;4.19;73.65;93263.28;5049020;28;20027;-40
2022/02/23 02:36:58;;;;;;;39.97;21.83;;;;;;;4.18;73.43;93272.72;5048606;28;20020;-41
2022/02/23 02:39:24;;;;;;;16.13;11.75;;;;;;;4.18;72.64;93278.16;5046192;28;20064;-39
2022/02/23 02:41:50;;;;;;;8.98;7.68;;;;;;;4.17;73.64;93281.44;5039360;27;20116;-41
2022/02/23 02:44:16;;;;;;;18.45;12.20;;;;;;;4.18;72.64;93286.38;5038953;28;20595;-39
2022/02/23 02:46:42;;;;;;;12.25;8.05;;;;;;;4.33;72.62;93286.00;5038252;28;20018;-41
2022/02/23 02:49:08;;;;;;;7.43;6.38;;;;;;;4.30;72.98;93285.03;5037342;28;20028;-41
2022/02/23 02:51:33;;;;;;;9.73;7.45;;;;;;;4.24;72.91;93284.34;5039254;28;20021;-41
2022/02/23 02:53:59;;;;;;;16.30;10.25;;;;;;;4.35;72.42;93291.69;5037655;28;20113;-40
2022/02/23 02:56:24;;;;;;;9.65;6.50;;;;;;;4.40;72.21;93302.56;5037572;28;20013;-41
2022/02/23 02:58:52;;;;;;;8.77;6.18;;;;;;;4.37;72.42;93289.19;5038960;28;20021;-41
2022/02/23 03:01:25;;;;;;;8.38;6.93;;;;;;;4.51;72.37;93294.25;5036585;28;20448;-41
2022/02/23 03:03:51;;;;;;;11.90;8.93;;;;;;;4.50;71.49;93287.28;5028608;28;20044;-41
2022/02/23 03:06:17;;;;;;;8.43;6.18;;;;;;;4.04;71.28;93282.03;5027357;28;20493;-40
2022/02/23 03:08:43;;;;;;;9.10;6.20;;;;;;;4.14;72.69;93299.56;5028561;28;20025;-41
2022/02/23 03:11:09;;;;;;;9.45;6.95;;;;;;;4.14;71.55;93296.84;5028359;28;20138;-40
2022/02/23 03:13:35;;;;;;;9.43;7.45;;;;;;;4.11;72.30;93297.88;5028266;28;20025;-41
2022/02/23 03:16:00;;;;;;;9.20;6.50;;;;;;;4.19;72.86;93311.72;5027400;28;20036;-41
2022/02/23 03:18:26;;;;;;;10.85;7.65;;;;;;;4.10;73.65;93306.56;5027672;28;20017;-41
2022/02/23 03:20:51;;;;;;;7.60;6.25;;;;;;;4.14;72.64;93302.31;5028337;28;20070;-41
2022/02/23 03:23:17;;;;;;;10.10;6.03;;;;;;;4.32;72.05;93328.22;5028122;28;20422;-41
2022/02/23 03:25:43;;;;;;;7.15;5.90;;;;;;;4.15;72.93;93312.00;5028019;28;20025;-42
2022/02/23 03:28:09;;;;;;;7.47;4.90;;;;;;;4.39;71.68;93298.34;5027830;28;20120;-41
2022/02/23 03:30:35;;;;;;;31.23;17.92;;;;;;;4.38;71.95;93326.19;5027970;28;20534;-42
2022/02/23 03:33:00;;;;;;;22.27;12.50;;;;;;;4.37;72.85;93322.72;5028181;28;20017;-42
2022/02/23 03:35:27;;;;;;;11.95;7.18;;;;;;;4.40;72.50;93334.59;5028169;28;20028;-42
2022/02/23 03:37:57;;;;;;;15.65;10.52;;;;;;;4.36;72.68;93334.91;5027834;28;20014;-41
2022/02/23 03:40:23;;;;;;;39.28;22.83;;;;;;;4.28;72.04;93325.78;5032971;27;20013;-42
2022/02/23 03:42:49;;;;;;;9.23;7.22;;;;;;;4.45;71.28;93333.81;5048007;28;20435;-41
2022/02/23 03:45:15;;;;;;;10.40;7.43;;;;;;;4.37;71.51;93339.13;5047577;28;20033;-41
2022/02/23 03:47:40;;;;;;;8.65;6.47;;;;;;;3.96;72.82;93337.75;5047530;28;20081;-41
2022/02/23 03:50:06;;;;;;;8.20;5.93;;;;;;;4.09;73.52;93349.56;5047506;28;20025;-41
2022/02/23 03:52:31;;;;;;;9.75;6.68;;;;;;;4.24;72.76;93344.47;5047544;28;20025;-41
2022/02/23 03:54:57;;;;;;;9.75;7.47;;;;;;;4.32;72.50;93348.13;5047432;28;20033;-41
2022/02/23 03:57:22;;;;;;;9.65;7.35;;;;;;;4.30;73.06;93342.41;5047445;28;20021;-41
2022/02/23 03:59:48;;;;;;;16.77;10.02;;;;;;;4.28;73.80;93333.25;5047486;28;20028;-40
2022/02/23 04:02:13;;;;;;;17.08;10.07;;;;;;;4.34;73.91;93337.41;5047400;28;20021;-41
2022/02/23 04:04:38;;;;;;;17.08;10.82;;;;;;;4.40;73.89;93343.56;5047749;28;20027;-41
2022/02/23 04:07:04;;;;;;;23.27;10.75;;;;;;;4.49;73.46;93347.94;5047516;28;20383;-41
2022/02/23 04:09:29;;;;;;;16.05;9.50;;;;;;;4.61;72.89;93355.53;5047689;28;20533;-41
2022/02/23 04:11:55;;;;;;;15.63;11.10;;;;;;;4.60;72.10;93353.31;5047162;28;20035;-41
2022/02/23 04:14:20;;;;;;;16.23;9.98;;;;;;;4.69;73.02;93363.16;5047570;28;20021;-41
2022/02/23 04:16:46;;;;;;;10.15;6.85;;;;;;;4.68;72.67;93364.44;5047464;28;20468;-40
2022/02/23 04:19:11;;;;;;;21.15;12.70;;;;;;;4.67;71.60;93360.94;5047423;28;20478;-40
2022/02/23 04:21:37;;;;;;;13.02;9.35;;;;;;;4.69;71.75;93374.09;5047436;28;20052;-41
2022/02/23 04:24:02;;;;;;;13.98;9.52;;;;;;;4.61;72.25;93369.19;5047100;28;20517;-41
2022/02/23 04:26:28;;;;;;;16.92;11.07;;;;;;;4.63;73.35;93363.94;5047080;28;20056;-41
2022/02/23 04:28:54;;;;;;;16.58;10.70;;;;;;;4.72;73.02;93370.34;5050608;28;20049;-42
2022/02/23 04:31:20;;;;;;;18.65;11.55;;;;;;;4.50;72.96;93374.03;5050945;28;20115;-42
2022/02/23 04:33:45;;;;;;;18.23;10.02;;;;;;;4.48;73.10;93380.00;5050520;28;20099;-41
2022/02/23 04:36:11;;;;;;;20.45;12.80;;;;;;;4.57;73.62;93381.66;5050557;28;20027;-41
2022/02/23 04:38:37;;;;;;;18.35;12.05;;;;;;;4.65;74.03;93379.88;5046270;28;20079;-41
2022/02/23 04:41:04;;;;;;;23.08;15.93;;;;;;;4.57;74.49;93384.41;5041476;27;20463;-41
2022/02/23 04:43:33;;;;;;;18.88;12.20;;;;;;;4.62;74.35;93394.56;5050467;28;20021;-41
2022/02/23 04:46:00;;;;;;;43.72;24.25;;;;;;;4.50;73.60;93388.44;5050256;28;20032;-41
2022/02/23 04:48:26;;;;;;;37.55;20.98;;;;;;;4.46;73.94;93392.72;5049220;28;20059;-42
2022/02/23 04:50:51;;;;;;;23.98;14.93;;;;;;;4.44;73.98;93392.50;5050315;28;20024;-41
2022/02/23 04:53:17;;;;;;;20.70;15.65;;;;;;;4.44;73.52;93398.69;5050603;28;20037;-41
2022/02/23 04:55:42;;;;;;;20.58;15.93;;;;;;;4.49;74.32;93397.16;5050521;28;20021;-41
2022/02/23 04:58:07;;;;;;;18.80;13.77;;;;;;;4.45;73.81;93404.91;5050498;28;20550;-41
2022/02/23 05:00:37;;;;;;;19.75;13.95;;;;;;;4.55;73.66;93409.53;5050247;28;20089;-42
2022/02/23 05:03:04;;;;;;;17.75;12.77;;;;;;;4.50;73.50;93415.78;5050739;28;20108;-42
2022/02/23 05:05:29;;;;;;;18.20;13.40;;;;;;;4.54;73.50;93416.25;5050461;28;20049;-41
2022/02/23 05:07:55;;;;;;;14.23;10.68;;;;;;;4.42;72.95;93420.31;5049906;28;20085;-42
2022/02/23 05:10:20;;;;;;;17.60;12.25;;;;;;;4.27;73.78;93427.41;5050453;28;20029;-41
2022/02/23 05:12:46;;;;;;;17.13;11.60;;;;;;;4.30;74.21;93429.88;5050294;28;20029;-41
2022/02/23 05:15:11;;;;;;;16.17;11.55;;;;;;;4.26;74.57;93437.59;5050278;28;20491;-41
2022/02/23 05:17:39;;;;;;;73.97;45.83;;;;;;;4.31;74.09;93444.28;5049889;28;20025;-42
2022/02/23 05:20:05;;;;;;;18.15;12.93;;;;;;;4.33;73.84;93450.69;5050085;28;20052;-41
2022/02/23 05:22:30;;;;;;;22.02;13.13;;;;;;;4.31;74.20;93447.00;5050231;28;20470;-41
2022/02/23 05:24:56;;;;;;;19.98;14.25;;;;;;;4.38;74.33;93457.38;5049714;28;20021;-42
2022/02/23 05:27:21;;;;;;;19.85;13.60;;;;;;;4.37;74.00;93456.66;5049616;28;20049;-41
2022/02/23 05:29:46;;;;;;;13.80;10.27;;;;;;;4.24;74.33;93470.16;5049666;28;20035;-41
2022/02/23 05:32:12;;;;;;;14.00;9.70;;;;;;;4.34;74.32;93465.88;5049921;28;20036;-41
2022/02/23 05:34:38;;;;;;;22.73;10.75;;;;;;;4.16;74.99;93443.91;5044893;28;20025;-41
2022/02/23 05:37:03;;;;;;;11.45;9.32;;;;;;;4.36;73.70;93476.28;5040247;28;20479;-41
2022/02/23 05:39:29;;;;;;;19.75;11.38;;;;;;;4.21;74.72;93479.38;5044092;27;20121;-42
2022/02/23 05:41:54;;;;;;;18.00;12.70;;;;;;;4.18;75.09;93477.63;5040804;27;20087;-42
2022/02/23 05:44:20;;;;;;;16.50;10.75;;;;;;;4.19;75.04;93484.59;5043793;28;20040;-41
2022/02/23 05:46:45;;;;;;;13.85;11.00;;;;;;;4.18;75.16;93482.38;5049675;28;20025;-41
2022/02/23 05:49:11;;;;;;;17.08;11.95;;;;;;;4.16;76.06;93484.88;5049493;28;20060;-42
2022/02/23 05:51:38;;;;;;;15.20;10.88;;;;;;;4.18;75.36;93485.13;5049387;28;20044;-42
2022/02/23 05:54:04;;;;;;;17.13;11.70;;;;;;;4.31;75.65;93488.72;5049676;28;20025;-42
2022/02/23 05:56:30;;;;;;;13.27;10.38;;;;;;;4.23;75.27;93487.06;5049399;28;20534;-42
2022/02/23 05:58:56;;;;;;;11.90;9.52;;;;;;;4.32;75.40;93490.22;5049536;28;20021;-42
2022/02/23 06:01:22;;;;;;;12.75;9.52;;;;;;;4.23;75.90;93496.00;5049553;28;20107;-42
2022/02/23 06:03:47;;;;;;;17.13;11.20;;;;;;;4.32;75.73;93498.44;5049234;28;20064;-42
2022/02/23 06:06:13;;;;;;;12.50;10.25;;;;;;;4.39;75.91;93505.34;5049412;28;20036;-42
2022/02/23 06:08:39;;;;;;;13.02;11.25;;;;;;;4.34;75.37;93509.59;5049466;28;20021;-42
2022/02/23 06:11:05;;;;;;;15.57;12.23;;;;;;;4.42;75.42;93509.78;5049383;28;20029;-42
2022/02/23 06:13:31;;;;;;;14.88;12.43;;;;;;;4.36;75.70;93509.06;5049078;28;20501;-43
2022/02/23 06:15:56;;;;;;;14.45;11.40;;;;;;;4.38;75.73;93512.78;5049241;28;20041;-42
2022/02/23 06:18:22;;;;;;;19.95;13.55;;;;;;;4.42;75.79;93516.00;5048685;28;20033;-41
2022/02/23 06:20:48;;;;;;;21.27;14.10;;;;;;;4.50;75.73;93525.13;5048248;28;20040;-40
2022/02/23 06:23:13;;;;;;;24.08;13.50;;;;;;;4.44;75.67;93532.63;5048939;28;20510;-40
2022/02/23 06:25:39;;;;;;;17.73;12.02;;;;;;;4.49;75.56;93517.44;5048911;28;20173;-41
2022/02/23 06:28:04;;;;;;;10.50;8.02;;;;;;;4.52;75.51;93530.09;5048571;28;20049;-41
2022/02/23 06:30:30;;;;;;;18.00;11.52;;;;;;;4.66;74.84;93531.72;5048902;28;20024;-41
2022/02/23 06:32:55;;;;;;;10.45;8.13;;;;;;;4.63;74.75;93538.22;5048723;28;20025;-41
2022/02/23 06:35:21;;;;;;;10.40;8.10;;;;;;;4.59;74.91;93541.22;5049146;28;20029;-41
2022/02/23 06:37:46;;;;;;;20.17;13.43;;;;;;;4.59;74.42;93533.03;5048577;28;20471;-42
2022/02/23 06:40:13;;;;;;;21.27;13.95;;;;;;;4.59;74.58;93543.25;5048647;27;20066;-40
2022/02/23 06:42:38;;;;;;;34.65;20.27;;;;;;;4.54;74.46;93555.69;5048947;28;20025;-41
2022/02/23 06:45:06;;;;;;;31.98;19.25;;;;;;;4.64;75.01;93542.44;5048794;28;20494;-41
2022/02/23 06:47:31;;;;;;;10.40;7.38;;;;;;;4.60;74.57;93550.19;5047261;28;20032;-41
2022/02/23 06:49:57;;;;;;;9.05;6.70;;;;;;;4.63;72.82;93555.34;5047686;28;20029;-41
2022/02/23 06:52:23;;;;;;;47.30;30.90;;;;;;;4.64;73.13;93556.09;5048511;28;20028;-41
2022/02/23 06:54:49;;;;;;;43.15;30.77;;;;;;;4.75;74.05;93571.69;5048743;28;20061;-41
2022/02/23 06:57:14;;;;;;;26.98;20.08;;;;;;;4.76;73.60;93581.41;5048376;28;20025;-41
2022/02/23 06:59:40;;;;;;;17.52;13.48;;;;;;;4.88;73.56;93586.28;5048763;28;20036;-41
2022/02/23 07:02:07;;;;;;;6.65;5.38;;;;;;;4.86;73.27;93586.03;5048548;28;20104;-41
2022/02/23 07:04:32;;;;;;;6.22;5.35;;;;;;;5.00;72.96;93600.63;5048194;28;20425;-42
2022/02/23 07:06:58;;;;;;;5.32;4.50;;;;;;;4.98;73.12;93592.19;5048171;28;20025;-41
2022/02/23 07:09:23;;;;;;;5.60;4.45;;;;;;;5.01;72.59;93589.16;5048128;28;20036;-41
2022/02/23 07:11:48;;;;;;;13.30;6.30;;;;;;;5.03;72.54;93603.06;5048168;28;20025;-41
2022/02/23 07:14:14;;;;;;;8.25;5.55;;;;;;;4.84;73.35;93591.28;5048128;28;20029;-41
2022/02/23 07:16:40;;;;;;;5.03;4.43;;;;;;;4.89;72.88;93576.09;5048140;28;20031;-41
2022/02/23 07:19:06;;;;;;;6.47;5.13;;;;;;;5.20;72.96;93583.78;5044459;28;20021;-41
2022/02/23 07:21:33;;;;;;;4.38;3.75;;;;;;;5.26;71.58;93589.97;5037300;28;20101;-41
2022/02/23 07:23:59;;;;;;;7.07;3.10;;;;;;;5.24;71.81;93579.50;5037310;28;20061;-41
2022/02/23 07:26:25;;;;;;;2.97;2.75;;;;;;;5.31;71.92;93580.94;5044454;28;20080;-41
2022/02/23 07:28:50;;;;;;;3.33;2.92;;;;;;;5.44;71.45;93585.81;5045088;28;20033;-41
2022/02/23 07:31:19;;;;;;;3.35;2.90;;;;;;;5.43;70.42;93570.66;5031371;28;20033;-41
2022/02/23 07:33:46;;;;;;;4.97;4.38;;;;;;;5.70;69.92;93592.28;5027963;28;20025;-41
2022/02/23 07:36:12;;;;;;;5.53;4.57;;;;;;;5.91;68.41;93587.13;5028185;28;20025;-40
2022/02/23 07:38:38;;;;;;;5.28;3.97;;;;;;;6.07;68.19;93586.16;5028170;28;20025;-41
2022/02/23 07:41:06;;;;;;;7.13;5.60;;;;;;;6.25;67.21;93593.69;5038551;27;20077;-41
2022/02/23 07:43:33;;;;;;;10.70;8.20;;;;;;;6.39;67.08;93587.00;5048028;28;20047;-41
2022/02/23 07:45:59;;;;;;;7.82;6.10;;;;;;;6.48;66.63;93589.41;5047612;28;20078;-41
2022/02/23 07:48:25;;;;;;;10.43;6.43;;;;;;;6.66;65.31;93590.66;5047006;28;20036;-41
2022/02/23 07:50:52;;;;;;;2.42;2.10;;;;;;;6.79;64.31;93591.47;5046733;28;20045;-41
2022/02/23 07:53:17;;;;;;;2.92;2.33;;;;;;;6.93;64.75;93592.25;5047488;28;20043;-41
2022/02/23 07:55:43;;;;;;;2.50;2.28;;;;;;;6.99;63.93;93590.19;5047503;28;20043;-41
2022/02/23 07:58:09;;;;;;;3.15;2.30;;;;;;;7.22;63.54;93599.56;5047703;28;20021;-41
2022/02/23 08:00:35;;;;;;;3.45;3.00;;;;;;;7.36;62.19;93592.09;5047576;28;20085;-41
2022/02/23 08:03:01;;;;;;;3.40;2.40;;;;;;;7.39;62.89;93593.78;5047691;28;20029;-42
2022/02/23 08:05:26;;;;;;;4.13;2.92;;;;;;;7.28;62.09;93594.72;5047627;28;20101;-41
2022/02/23 08:07:55;;;;;;;8.32;5.20;;;;;;;7.28;63.15;93593.97;5047291;28;20072;-41
2022/02/23 08:10:24;;;;;;;3.97;3.10;;;;;;;7.25;62.95;93587.53;5047602;28;20061;-41
2022/02/23 08:12:53;;;;;;;3.28;2.83;;;;;;;7.33;62.21;93588.41;5047280;28;20044;-41
2022/02/23 08:20:47;;;;;;;2.70;2.50;;;;;;;7.48;61.66;93591.38;5047420;28;20160;-40
2022/02/23 08:23:14;;;;;;;3.45;3.15;;;;;;;7.39;61.24;93599.28;5045946;28;20056;-40
2022/02/23 08:25:39;;;;;;;14.85;3.83;;;;;;;7.27;62.50;93604.22;5047407;28;20109;-41
2022/02/23 08:28:05;;;;;;;3.95;3.65;;;;;;;7.30;62.23;93605.16;5046776;28;20049;-41
2022/02/23 08:30:30;;;;;;;3.33;2.88;;;;;;;7.31;61.55;93598.41;5047051;28;20033;-41
2022/02/23 08:33:00;;;;;;;4.97;4.25;;;;;;;7.40;61.33;93603.50;5038904;28;20041;-41
2022/02/23 08:35:25;;;;;;;3.15;2.65;;;;;;;7.26;60.41;93619.22;5047222;28;20581;-41
2022/02/23 08:37:51;;;;;;;3.72;2.55;;;;;;;7.30;60.21;93616.16;5047228;28;20025;-41
2022/02/23 08:40:16;;;;;;;4.22;2.67;;;;;;;7.25;61.19;93617.75;5046524;27;20109;-41
2022/02/23 08:42:42;;;;;;;6.13;3.28;;;;;;;7.35;60.78;93618.81;5047255;28;20481;-41
2022/02/23 08:45:08;;;;;;;4.57;3.30;;;;;;;7.27;60.03;93620.69;5047199;28;20029;-41
2022/02/23 08:47:33;;;;;;;3.70;3.28;;;;;;;7.20;60.58;93620.56;5047090;28;20653;-41
2022/02/23 08:49:59;;;;;;;4.18;3.78;;;;;;;7.11;61.28;93613.44;5047080;28;20501;-41
2022/02/23 08:52:24;;;;;;;4.75;3.92;;;;;;;7.03;61.68;93615.31;5047054;28;20021;-41
2022/02/23 08:54:50;;;;;;;10.82;7.40;;;;;;;7.18;61.54;93612.84;5043509;28;20024;-41
2022/02/23 08:57:15;;;;;;;6.07;5.32;;;;;;;7.19;61.98;93616.34;5044504;28;20060;-41
2022/02/23 08:59:40;;;;;;;6.47;5.88;;;;;;;7.43;60.73;93611.44;5044507;28;20021;-41
2022/02/23 09:02:06;;;;;;;36.08;23.88;;;;;;;7.19;61.05;93586.84;5044251;28;20035;-41
2022/02/23 09:04:32;;;;;;;5.13;4.63;;;;;;;7.47;60.26;93605.66;5044165;28;20027;-40
2022/02/23 09:06:57;;;;;;;25.83;18.17;;;;;;;7.64;59.85;93608.84;5043952;28;20044;-41
2022/02/23 09:09:23;;;;;;;28.02;18.52;;;;;;;7.75;60.63;93610.66;5036383;28;20029;-42
2022/02/23 09:11:48;;;;;;;8.68;5.18;;;;;;;7.86;60.03;93585.75;5025945;28;20033;-41
2022/02/23 09:14:15;;;;;;;4.53;4.07;;;;;;;8.28;58.06;93606.69;5026730;28;20056;-41
2022/02/23 09:16:41;;;;;;;10.35;7.75;;;;;;;8.39;58.15;93611.97;5027839;28;20061;-41
2022/02/23 09:19:07;;;;;;;6.55;5.00;;;;;;;8.54;57.33;93614.91;5028483;28;20720;-41
2022/02/23 09:21:33;;;;;;;5.20;3.65;;;;;;;8.98;56.16;93616.75;5046126;28;20085;-41
2022/02/23 09:24:01;;;;;;;6.05;4.28;;;;;;;9.25;54.82;93619.41;5047444;28;20037;-40
2022/02/23 09:26:28;;;;;;;6.47;4.68;;;;;;;9.06;54.72;93623.06;5047565;28;20037;-41
2022/02/23 09:28:54;;;;;;;8.95;4.25;;;;;;;9.53;53.61;93633.28;5047411;28;20128;-41
2022/02/23 09:31:20;;;;;;;6.50;4.60;;;;;;;9.79;53.12;93627.59;5047198;28;20111;-41
2022/02/23 09:33:46;;;;;;;4.47;4.07;;;;;;;9.82;51.69;93643.06;5045684;28;20029;-41
2022/02/23 09:36:11;;;;;;;6.05;3.85;;;;;;;9.77;51.87;93630.91;5047831;28;20113;-41
2022/02/23 09:38:37;;;;;;;6.60;4.10;;;;;;;10.14;51.16;93626.22;5047675;28;20033;-42
2022/02/23 09:41:04;;;;;;;4.35;3.72;;;;;;;10.72;50.10;93626.38;5046839;27;20085;-41
2022/02/23 09:43:31;;;;;;;5.00;4.57;;;;;;;11.20;48.88;93613.66;5046978;28;20029;-41
2022/02/23 09:45:56;;;;;;;4.75;4.25;;;;;;;10.92;48.54;93600.69;5047170;28;20033;-41
2022/02/23 09:48:27;;;;;;;5.85;4.68;;;;;;;10.94;49.29;93625.00;5039146;28;20472;-41
2022/02/23 09:50:53;;;;;;;5.07;4.30;;;;;;;10.84;48.89;93635.84;5027472;28;20464;-42
2022/02/23 09:53:19;;;;;;;7.35;5.28;;;;;;;11.00;49.35;93628.34;5027264;28;20049;-41
2022/02/23 09:55:45;;;;;;;10.40;7.50;;;;;;;10.99;49.81;93629.63;5030670;28;20082;-41
2022/02/23 09:58:10;;;;;;;6.32;5.68;;;;;;;10.50;50.01;93632.53;5035555;28;20026;-41
2022/02/23 10:00:37;;;;;;;7.65;5.43;;;;;;;10.18;49.48;93637.69;5027119;28;20620;-41
2022/02/23 10:03:04;;;;;;;17.27;10.43;;;;;;;9.94;49.67;93644.25;5038710;28;20475;-41
2022/02/23 10:05:37;;;;;;;48.13;22.80;;;;;;;9.62;51.61;93643.81;5047015;28;20081;-40
2022/02/23 10:08:09;;;;;;;9.25;6.15;;;;;;;9.51;51.81;93647.56;5046784;28;20700;-41
2022/02/23 10:10:39;;;;;;;9.25;6.50;;;;;;;9.35;51.63;93645.22;5047072;28;20035;-41
2022/02/23 10:13:06;;;;;;;8.48;5.88;;;;;;;9.50;53.10;93629.56;5047220;28;20072;-41
2022/02/23 10:15:43;;;;;;;9.02;7.25;;;;;;;9.88;51.52;93638.16;5033331;28;20674;-40
2022/02/23 10:18:11;;;;;;;6.90;5.13;;;;;;;9.90;52.18;93649.38;5028978;28;20422;-41
2022/02/23 10:20:39;;;;;;;15.25;11.27;;;;;;;9.90;50.19;93646.63;5046526;28;20025;-40
2022/02/23 10:23:18;;;;;;;10.87;6.47;;;;;;;9.54;50.56;93643.00;5044825;28;20116;-41
2022/02/23 10:25:49;;;;;;;8.07;6.38;;;;;;;9.02;53.18;93633.69;5045210;28;20089;-41
2022/02/23 10:28:21;;;;;;;10.77;6.82;;;;;;;8.63;54.24;93631.00;5046456;28;20064;-41
2022/02/23 10:30:56;;;;;;;13.80;8.80;;;;;;;8.51;54.75;93638.00;5046760;28;20068;-41
2022/02/23 10:33:33;;;;;;;10.35;7.60;;;;;;;8.84;54.90;93631.81;5046607;28;20032;-41
2022/02/23 10:36:07;;;;;;;11.80;8.63;;;;;;;9.43;53.40;93630.22;5046638;28;20029;-41
2022/02/23 10:38:41;;;;;;;10.07;7.53;;;;;;;9.58;52.05;93613.09;5043576;28;20428;-41
2022/02/23 10:41:09;;;;;;;8.70;7.05;;;;;;;10.24;51.26;93624.47;5045128;27;20041;-41
2022/02/23 10:43:40;;;;;;;8.25;6.05;;;;;;;10.42;50.70;93626.22;5046384;28;20044;-41
2022/02/23 10:46:11;;;;;;;9.50;7.30;;;;;;;10.59;49.99;93623.72;5046343;28;20041;-41
2022/02/23 10:48:44;;;;;;;15.13;10.63;;;;;;;10.64;48.30;93623.59;5046113;28;20110;-41
2022/02/23 10:51:14;;;;;;;14.52;8.20;;;;;;;10.40;48.26;93615.00;5046002;28;20029;-41
2022/02/23 10:53:40;;;;;;;12.73;8.50;;;;;;;10.39;47.96;93614.28;5046177;28;20021;-40
2022/02/23 10:56:22;;;;;;;8.52;5.57;;;;;;;10.82;49.04;93621.09;5037232;28;20074;-40
2022/02/23 10:58:59;;;;;;;20.67;13.82;;;;;;;11.03;47.97;93628.00;5028093;28;20574;-41
2022/02/23 11:01:25;;;;;;;18.33;10.73;;;;;;;10.54;48.03;93622.63;5038002;28;20028;-40
2022/02/23 11:03:50;;;;;;;6.60;4.75;;;;;;;10.54;49.87;93610.84;5046478;28;20021;-40
2022/02/23 11:06:17;;;;;;;11.30;5.75;;;;;;;10.43;50.09;93609.13;5046079;28;20021;-40
2022/02/23 11:08:49;;;;;;;6.50;4.95;;;;;;;10.43;50.42;93620.19;5044737;28;20052;-40
2022/02/23 11:11:15;;;;;;;7.85;5.65;;;;;;;10.32;50.04;93616.97;5046117;28;20414;-40
2022/02/23 11:13:40;;;;;;;13.52;8.90;;;;;;;10.19;50.13;93620.56;5046170;28;20043;-40
2022/02/23 11:16:08;;;;;;;6.25;5.07;;;;;;;9.91;51.81;93617.78;5045673;28;20063;-41
2022/02/23 11:18:35;;;;;;;9.48;6.07;;;;;;;9.51;51.55;93625.53;5044721;28;20085;-40
2022/02/23 11:21:01;;;;;;;9.45;6.05;;;;;;;9.40;51.15;93630.56;5045595;28;20021;-40
2022/02/23 11:23:28;;;;;;;9.95;7.35;;;;;;;9.24;51.86;93617.91;5042552;28;20060;-39
2022/02/23 11:25:54;;;;;;;11.02;8.18;;;;;;;9.39;50.62;93626.31;5043734;28;20036;-41
2022/02/23 11:28:24;;;;;;;10.93;7.03;;;;;;;9.25;49.71;93624.91;5027148;28;20542;-40
2022/02/23 11:30:55;;;;;;;17.20;10.73;;;;;;;9.16;50.58;93618.56;5036315;28;20060;-39
2022/02/23 11:33:40;;;;;;;9.85;6.00;;;;;;;9.25;50.39;93625.63;5045491;28;20021;-41
2022/02/23 11:36:18;;;;;;;13.60;7.22;;;;;;;9.27;50.17;93619.59;5046035;28;20394;-40